sensor_id;sensor_type;location;lat;lon;timestamp;P1;durP1;ratioP1;P2;durP2;ratioP2
26622;SDS011;14254;50.968;5.366;2022-10-19T00:01:39;26.77;;;7.68;;
26622;SDS011;14254;50.968;5.366;2022-10-19T00:04:05;22.35;;;8.38;;
26622;SDS011;14254;50.968;5.366;2022-10-19T00:06:32;22.70;;;8.88;;
26622;SDS011;14254;50.968;5.366;2022-10-19T00:09:00;25.75;;;8.55;;
26622;SDS011;14254;50.968;5.366;2022-10-19T00:11:28;23.70;;;8.48;;
26622;SDS011;14254;50.968;5.366;2022-10-19T00:13:56;29.75;;;8.95;;
26622;SDS011;14254;50.968;5.366;2022-10-19T00:16:23;25.85;;;8.48;;
26622;SDS011;14254;50.968;5.366;2022-10-19T00:18:50;28.73;;;9.07;;
26622;SDS011;14254;50.968;5.366;2022-10-19T00:21:16;25.98;;;8.05;;
26622;SDS011;14254;50.968;5.366;2022-10-19T00:23:43;21.35;;;8.70;;
26622;SDS011;14254;50.968;5.366;2022-10-19T00:26:10;36.33;;;9.60;;
26622;SDS011;14254;50.968;5.366;2022-10-19T00:28:36;19.95;;;8.27;;
26622;SDS011;14254;50.968;5.366;2022-10-19T00:31:06;19.95;;;7.43;;
26622;SDS011;14254;50.968;5.366;2022-10-19T00:33:34;22.63;;;8.63;;
26622;SDS011;14254;50.968;5.366;2022-10-19T00:36:00;18.35;;;7.68;;
26622;SDS011;14254;50.968;5.366;2022-10-19T00:38:26;22.85;;;9.20;;
26622;SDS011;14254;50.968;5.366;2022-10-19T00:40:52;23.58;;;8.35;;
26622;SDS011;14254;50.968;5.366;2022-10-19T00:43:20;22.48;;;7.88;;
26622;SDS011;14254;50.968;5.366;2022-10-19T00:45:47;24.25;;;8.38;;
26622;SDS011;14254;50.968;5.366;2022-10-19T00:48:17;21.45;;;7.10;;
26622;SDS011;14254;50.968;5.366;2022-10-19T00:50:50;27.40;;;7.82;;
26622;SDS011;14254;50.968;5.366;2022-10-19T00:53:17;23.85;;;7.50;;
26622;SDS011;14254;50.968;5.366;2022-10-19T00:55:43;15.57;;;7.63;;
26622;SDS011;14254;50.968;5.366;2022-10-19T00:58:10;25.17;;;7.78;;
26622;SDS011;14254;50.968;5.366;2022-10-19T01:00:36;32.22;;;8.95;;
26622;SDS011;14254;50.968;5.366;2022-10-19T01:03:02;26.40;;;8.15;;
26622;SDS011;14254;50.968;5.366;2022-10-19T01:05:28;19.25;;;7.00;;
26622;SDS011;14254;50.968;5.366;2022-10-19T01:07:55;26.75;;;8.05;;
26622;SDS011;14254;50.968;5.366;2022-10-19T01:10:23;22.90;;;8.13;;
26622;SDS011;14254;50.968;5.366;2022-10-19T01:13:11;26.75;;;7.95;;
26622;SDS011;14254;50.968;5.366;2022-10-19T01:16:07;27.98;;;8.93;;
26622;SDS011;14254;50.968;5.366;2022-10-19T01:18:44;23.77;;;7.90;;
26622;SDS011;14254;50.968;5.366;2022-10-19T01:21:26;17.83;;;8.27;;
26622;SDS011;14254;50.968;5.366;2022-10-19T01:26:45;26.33;;;9.65;;
26622;SDS011;14254;50.968;5.366;2022-10-19T01:32:15;29.83;;;10.38;;
26622;SDS011;14254;50.968;5.366;2022-10-19T01:37:49;22.52;;;10.27;;
26622;SDS011;14254;50.968;5.366;2022-10-19T01:40:30;26.00;;;9.85;;
26622;SDS011;14254;50.968;5.366;2022-10-19T01:43:01;32.95;;;11.10;;
26622;SDS011;14254;50.968;5.366;2022-10-19T01:48:14;24.42;;;10.65;;
26622;SDS011;14254;50.968;5.366;2022-10-19T01:50:46;27.15;;;10.45;;
26622;SDS011;14254;50.968;5.366;2022-10-19T01:53:19;30.52;;;11.27;;
26622;SDS011;14254;50.968;5.366;2022-10-19T01:55:46;38.25;;;11.27;;
26622;SDS011;14254;50.968;5.366;2022-10-19T01:58:16;28.63;;;11.57;;
26622;SDS011;14254;50.968;5.366;2022-10-19T02:00:48;26.50;;;11.05;;
26622;SDS011;14254;50.968;5.366;2022-10-19T02:03:17;31.88;;;11.38;;
26622;SDS011;14254;50.968;5.366;2022-10-19T02:05:44;25.25;;;10.88;;
26622;SDS011;14254;50.968;5.366;2022-10-19T02:08:13;30.35;;;12.70;;
26622;SDS011;14254;50.968;5.366;2022-10-19T02:10:43;31.60;;;10.67;;
26622;SDS011;14254;50.968;5.366;2022-10-19T02:13:11;24.95;;;10.85;;
26622;SDS011;14254;50.968;5.366;2022-10-19T02:15:39;33.08;;;13.65;;
26622;SDS011;14254;50.968;5.366;2022-10-19T02:18:07;28.52;;;11.43;;
26622;SDS011;14254;50.968;5.366;2022-10-19T02:20:37;29.83;;;11.57;;
26622;SDS011;14254;50.968;5.366;2022-10-19T02:23:06;26.38;;;11.82;;
26622;SDS011;14254;50.968;5.366;2022-10-19T02:25:32;28.17;;;10.52;;
26622;SDS011;14254;50.968;5.366;2022-10-19T02:27:58;32.33;;;11.07;;
26622;SDS011;14254;50.968;5.366;2022-10-19T02:30:26;37.83;;;11.10;;
26622;SDS011;14254;50.968;5.366;2022-10-19T02:32:51;25.75;;;11.30;;
26622;SDS011;14254;50.968;5.366;2022-10-19T02:35:17;30.45;;;12.10;;
26622;SDS011;14254;50.968;5.366;2022-10-19T02:37:43;37.08;;;12.10;;
26622;SDS011;14254;50.968;5.366;2022-10-19T02:40:09;26.73;;;12.88;;
26622;SDS011;14254;50.968;5.366;2022-10-19T02:42:47;26.80;;;12.02;;
26622;SDS011;14254;50.968;5.366;2022-10-19T02:45:21;40.47;;;12.75;;
26622;SDS011;14254;50.968;5.366;2022-10-19T02:47:54;30.95;;;12.75;;
26622;SDS011;14254;50.968;5.366;2022-10-19T02:50:26;29.88;;;12.23;;
26622;SDS011;14254;50.968;5.366;2022-10-19T02:52:52;32.05;;;12.73;;
26622;SDS011;14254;50.968;5.366;2022-10-19T02:55:18;36.22;;;11.13;;
26622;SDS011;14254;50.968;5.366;2022-10-19T02:57:43;36.22;;;11.43;;
26622;SDS011;14254;50.968;5.366;2022-10-19T03:00:09;22.67;;;11.43;;
26622;SDS011;14254;50.968;5.366;2022-10-19T03:02:35;29.35;;;11.95;;
26622;SDS011;14254;50.968;5.366;2022-10-19T03:05:02;52.15;;;14.48;;
26622;SDS011;14254;50.968;5.366;2022-10-19T03:07:28;29.02;;;12.27;;
26622;SDS011;14254;50.968;5.366;2022-10-19T03:09:53;42.20;;;12.27;;
26622;SDS011;14254;50.968;5.366;2022-10-19T03:12:19;30.60;;;12.63;;
26622;SDS011;14254;50.968;5.366;2022-10-19T03:14:45;29.35;;;12.20;;
26622;SDS011;14254;50.968;5.366;2022-10-19T03:17:10;31.00;;;12.60;;
26622;SDS011;14254;50.968;5.366;2022-10-19T03:19:36;34.47;;;12.48;;
26622;SDS011;14254;50.968;5.366;2022-10-19T03:22:02;30.75;;;12.40;;
26622;SDS011;14254;50.968;5.366;2022-10-19T03:24:28;31.58;;;13.85;;
26622;SDS011;14254;50.968;5.366;2022-10-19T03:26:55;34.25;;;13.90;;
26622;SDS011;14254;50.968;5.366;2022-10-19T03:29:21;40.15;;;14.05;;
26622;SDS011;14254;50.968;5.366;2022-10-19T03:31:46;35.30;;;13.93;;
26622;SDS011;14254;50.968;5.366;2022-10-19T03:34:12;31.65;;;12.50;;
26622;SDS011;14254;50.968;5.366;2022-10-19T03:36:38;33.17;;;13.50;;
26622;SDS011;14254;50.968;5.366;2022-10-19T03:39:05;34.42;;;14.60;;
26622;SDS011;14254;50.968;5.366;2022-10-19T03:41:34;28.98;;;14.18;;
26622;SDS011;14254;50.968;5.366;2022-10-19T03:44:01;27.73;;;14.52;;
26622;SDS011;14254;50.968;5.366;2022-10-19T03:46:27;32.75;;;14.20;;
26622;SDS011;14254;50.968;5.366;2022-10-19T03:48:53;43.97;;;16.42;;
26622;SDS011;14254;50.968;5.366;2022-10-19T03:51:20;35.15;;;16.38;;
26622;SDS011;14254;50.968;5.366;2022-10-19T03:53:54;36.30;;;17.30;;
26622;SDS011;14254;50.968;5.366;2022-10-19T03:56:23;28.73;;;14.75;;
26622;SDS011;14254;50.968;5.366;2022-10-19T03:58:50;36.20;;;15.15;;
26622;SDS011;14254;50.968;5.366;2022-10-19T04:01:30;31.30;;;14.85;;
26622;SDS011;14254;50.968;5.366;2022-10-19T04:03:59;30.17;;;14.13;;
26622;SDS011;14254;50.968;5.366;2022-10-19T04:06:32;40.03;;;16.30;;
26622;SDS011;14254;50.968;5.366;2022-10-19T04:08:59;36.08;;;14.20;;
26622;SDS011;14254;50.968;5.366;2022-10-19T04:11:28;32.47;;;15.68;;
26622;SDS011;14254;50.968;5.366;2022-10-19T04:13:55;28.17;;;13.50;;
26622;SDS011;14254;50.968;5.366;2022-10-19T04:16:23;27.55;;;13.57;;
26622;SDS011;14254;50.968;5.366;2022-10-19T04:18:50;29.63;;;15.18;;
26622;SDS011;14254;50.968;5.366;2022-10-19T04:21:20;41.67;;;15.07;;
26622;SDS011;14254;50.968;5.366;2022-10-19T04:24:01;44.75;;;15.65;;
26622;SDS011;14254;50.968;5.366;2022-10-19T04:26:27;41.03;;;16.35;;
26622;SDS011;14254;50.968;5.366;2022-10-19T04:28:53;34.28;;;15.60;;
26622;SDS011;14254;50.968;5.366;2022-10-19T04:31:20;34.70;;;14.88;;
26622;SDS011;14254;50.968;5.366;2022-10-19T04:33:46;38.97;;;16.35;;
26622;SDS011;14254;50.968;5.366;2022-10-19T04:36:12;40.75;;;16.55;;
26622;SDS011;14254;50.968;5.366;2022-10-19T04:38:37;28.48;;;15.60;;
26622;SDS011;14254;50.968;5.366;2022-10-19T04:41:04;37.38;;;16.75;;
26622;SDS011;14254;50.968;5.366;2022-10-19T04:43:31;34.38;;;16.50;;
26622;SDS011;14254;50.968;5.366;2022-10-19T04:46:00;37.22;;;17.10;;
26622;SDS011;14254;50.968;5.366;2022-10-19T04:48:27;42.72;;;16.58;;
26622;SDS011;14254;50.968;5.366;2022-10-19T04:50:53;39.17;;;16.58;;
26622;SDS011;14254;50.968;5.366;2022-10-19T04:53:20;32.92;;;15.18;;
26622;SDS011;14254;50.968;5.366;2022-10-19T04:55:45;36.85;;;15.70;;
26622;SDS011;14254;50.968;5.366;2022-10-19T04:58:11;40.92;;;17.33;;
26622;SDS011;14254;50.968;5.366;2022-10-19T05:00:37;32.40;;;16.95;;
26622;SDS011;14254;50.968;5.366;2022-10-19T05:03:03;33.40;;;17.20;;
26622;SDS011;14254;50.968;5.366;2022-10-19T05:05:30;40.30;;;18.85;;
26622;SDS011;14254;50.968;5.366;2022-10-19T05:07:57;39.75;;;19.15;;
26622;SDS011;14254;50.968;5.366;2022-10-19T05:10:22;44.80;;;19.48;;
26622;SDS011;14254;50.968;5.366;2022-10-19T05:12:48;40.97;;;18.35;;
26622;SDS011;14254;50.968;5.366;2022-10-19T05:15:14;32.60;;;15.43;;
26622;SDS011;14254;50.968;5.366;2022-10-19T05:17:39;35.55;;;18.25;;
26622;SDS011;14254;50.968;5.366;2022-10-19T05:20:05;35.50;;;19.92;;
26622;SDS011;14254;50.968;5.366;2022-10-19T05:22:31;48.08;;;17.90;;
26622;SDS011;14254;50.968;5.366;2022-10-19T05:24:57;48.05;;;19.08;;
26622;SDS011;14254;50.968;5.366;2022-10-19T05:27:23;44.40;;;18.77;;
26622;SDS011;14254;50.968;5.366;2022-10-19T05:29:48;39.40;;;18.45;;
26622;SDS011;14254;50.968;5.366;2022-10-19T05:32:14;42.22;;;19.17;;
26622;SDS011;14254;50.968;5.366;2022-10-19T05:34:40;44.42;;;20.33;;
26622;SDS011;14254;50.968;5.366;2022-10-19T05:37:06;44.60;;;20.98;;
26622;SDS011;14254;50.968;5.366;2022-10-19T05:39:31;45.10;;;20.77;;
26622;SDS011;14254;50.968;5.366;2022-10-19T05:41:57;35.85;;;18.55;;
26622;SDS011;14254;50.968;5.366;2022-10-19T05:44:23;39.00;;;20.65;;
26622;SDS011;14254;50.968;5.366;2022-10-19T05:46:49;47.13;;;19.40;;
26622;SDS011;14254;50.968;5.366;2022-10-19T05:49:16;45.65;;;22.23;;
26622;SDS011;14254;50.968;5.366;2022-10-19T05:51:43;45.00;;;22.38;;
26622;SDS011;14254;50.968;5.366;2022-10-19T05:54:12;46.17;;;22.02;;
26622;SDS011;14254;50.968;5.366;2022-10-19T05:56:39;49.85;;;23.23;;
26622;SDS011;14254;50.968;5.366;2022-10-19T05:59:06;68.75;;;27.35;;
26622;SDS011;14254;50.968;5.366;2022-10-19T06:01:33;47.05;;;24.88;;
26622;SDS011;14254;50.968;5.366;2022-10-19T06:03:59;45.33;;;26.33;;
26622;SDS011;14254;50.968;5.366;2022-10-19T06:06:26;53.20;;;27.17;;
26622;SDS011;14254;50.968;5.366;2022-10-19T06:08:52;56.40;;;26.52;;
26622;SDS011;14254;50.968;5.366;2022-10-19T06:11:24;51.85;;;28.10;;
26622;SDS011;14254;50.968;5.366;2022-10-19T06:16:21;50.63;;;26.52;;
26622;SDS011;14254;50.968;5.366;2022-10-19T06:18:48;55.03;;;25.02;;
26622;SDS011;14254;50.968;5.366;2022-10-19T06:21:15;60.40;;;29.70;;
26622;SDS011;14254;50.968;5.366;2022-10-19T06:23:42;46.33;;;26.45;;
26622;SDS011;14254;50.968;5.366;2022-10-19T06:26:09;69.75;;;30.40;;
26622;SDS011;14254;50.968;5.366;2022-10-19T06:28:38;71.45;;;30.05;;
26622;SDS011;14254;50.968;5.366;2022-10-19T06:31:04;60.20;;;29.75;;
26622;SDS011;14254;50.968;5.366;2022-10-19T06:33:31;61.88;;;31.17;;
26622;SDS011;14254;50.968;5.366;2022-10-19T06:36:13;64.05;;;29.58;;
26622;SDS011;14254;50.968;5.366;2022-10-19T06:38:40;53.33;;;26.48;;
26622;SDS011;14254;50.968;5.366;2022-10-19T06:41:06;63.55;;;29.73;;
26622;SDS011;14254;50.968;5.366;2022-10-19T06:43:32;59.38;;;30.27;;
26622;SDS011;14254;50.968;5.366;2022-10-19T06:46:02;60.78;;;30.33;;
26622;SDS011;14254;50.968;5.366;2022-10-19T06:48:35;48.60;;;28.63;;
26622;SDS011;14254;50.968;5.366;2022-10-19T06:51:02;60.72;;;28.67;;
26622;SDS011;14254;50.968;5.366;2022-10-19T06:53:29;64.25;;;29.63;;
26622;SDS011;14254;50.968;5.366;2022-10-19T06:55:58;60.25;;;29.48;;
26622;SDS011;14254;50.968;5.366;2022-10-19T06:58:24;61.95;;;28.85;;
26622;SDS011;14254;50.968;5.366;2022-10-19T07:00:56;60.45;;;28.13;;
26622;SDS011;14254;50.968;5.366;2022-10-19T07:03:24;57.53;;;27.75;;
26622;SDS011;14254;50.968;5.366;2022-10-19T07:05:57;58.33;;;28.10;;
26622;SDS011;14254;50.968;5.366;2022-10-19T07:08:25;54.58;;;26.50;;
26622;SDS011;14254;50.968;5.366;2022-10-19T07:10:54;59.08;;;26.88;;
26622;SDS011;14254;50.968;5.366;2022-10-19T07:13:21;64.28;;;24.73;;
26622;SDS011;14254;50.968;5.366;2022-10-19T07:15:47;54.00;;;24.55;;
26622;SDS011;14254;50.968;5.366;2022-10-19T07:18:13;48.10;;;23.95;;
26622;SDS011;14254;50.968;5.366;2022-10-19T07:20:39;46.58;;;23.48;;
26622;SDS011;14254;50.968;5.366;2022-10-19T07:23:05;49.05;;;22.77;;
26622;SDS011;14254;50.968;5.366;2022-10-19T07:25:31;47.25;;;22.77;;
26622;SDS011;14254;50.968;5.366;2022-10-19T07:27:57;57.08;;;20.30;;
26622;SDS011;14254;50.968;5.366;2022-10-19T07:30:23;45.25;;;18.92;;
26622;SDS011;14254;50.968;5.366;2022-10-19T07:32:49;50.33;;;19.40;;
26622;SDS011;14254;50.968;5.366;2022-10-19T07:35:14;40.00;;;18.33;;
26622;SDS011;14254;50.968;5.366;2022-10-19T07:37:40;42.78;;;18.13;;
26622;SDS011;14254;50.968;5.366;2022-10-19T07:40:06;42.95;;;16.27;;
26622;SDS011;14254;50.968;5.366;2022-10-19T07:42:32;31.15;;;16.10;;
26622;SDS011;14254;50.968;5.366;2022-10-19T07:44:58;43.83;;;17.70;;
26622;SDS011;14254;50.968;5.366;2022-10-19T07:47:24;25.88;;;14.95;;
26622;SDS011;14254;50.968;5.366;2022-10-19T07:49:50;34.60;;;14.93;;
26622;SDS011;14254;50.968;5.366;2022-10-19T07:52:15;35.70;;;15.00;;
26622;SDS011;14254;50.968;5.366;2022-10-19T07:54:41;38.15;;;18.15;;
26622;SDS011;14254;50.968;5.366;2022-10-19T07:57:07;29.75;;;14.10;;
26622;SDS011;14254;50.968;5.366;2022-10-19T07:59:35;34.97;;;15.10;;
26622;SDS011;14254;50.968;5.366;2022-10-19T08:02:01;42.00;;;17.05;;
26622;SDS011;14254;50.968;5.366;2022-10-19T08:04:28;41.38;;;13.95;;
26622;SDS011;14254;50.968;5.366;2022-10-19T08:06:54;27.25;;;15.25;;
26622;SDS011;14254;50.968;5.366;2022-10-19T08:09:20;35.20;;;14.23;;
26622;SDS011;14254;50.968;5.366;2022-10-19T08:11:46;23.65;;;11.32;;
26622;SDS011;14254;50.968;5.366;2022-10-19T08:14:11;32.88;;;13.35;;
26622;SDS011;14254;50.968;5.366;2022-10-19T08:16:37;32.97;;;12.52;;
26622;SDS011;14254;50.968;5.366;2022-10-19T08:19:07;26.80;;;9.90;;
26622;SDS011;14254;50.968;5.366;2022-10-19T08:21:38;21.55;;;10.73;;
26622;SDS011;14254;50.968;5.366;2022-10-19T08:24:05;29.38;;;11.88;;
26622;SDS011;14254;50.968;5.366;2022-10-19T08:26:32;30.65;;;13.05;;
26622;SDS011;14254;50.968;5.366;2022-10-19T08:29:03;28.00;;;10.60;;
26622;SDS011;14254;50.968;5.366;2022-10-19T08:31:34;23.63;;;10.90;;
26622;SDS011;14254;50.968;5.366;2022-10-19T08:34:00;33.63;;;10.65;;
26622;SDS011;14254;50.968;5.366;2022-10-19T08:36:26;24.13;;;10.50;;
26622;SDS011;14254;50.968;5.366;2022-10-19T08:38:55;27.13;;;10.43;;
26622;SDS011;14254;50.968;5.366;2022-10-19T08:49:42;22.17;;;9.48;;
26622;SDS011;14254;50.968;5.366;2022-10-19T08:52:15;19.40;;;9.05;;
26622;SDS011;14254;50.968;5.366;2022-10-19T08:57:23;27.00;;;9.18;;
26622;SDS011;14254;50.968;5.366;2022-10-19T09:00:02;19.05;;;7.28;;
26622;SDS011;14254;50.968;5.366;2022-10-19T09:05:04;20.75;;;7.78;;
26622;SDS011;14254;50.968;5.366;2022-10-19T09:07:44;27.10;;;9.05;;
26622;SDS011;14254;50.968;5.366;2022-10-19T09:12:49;20.70;;;9.20;;
26622;SDS011;14254;50.968;5.366;2022-10-19T09:15:19;22.58;;;8.05;;
26622;SDS011;14254;50.968;5.366;2022-10-19T09:17:50;25.08;;;8.90;;
26622;SDS011;14254;50.968;5.366;2022-10-19T09:20:20;20.65;;;8.05;;
26622;SDS011;14254;50.968;5.366;2022-10-19T09:23:52;23.20;;;9.15;;
26622;SDS011;14254;50.968;5.366;2022-10-19T09:25:44;31.63;;;11.00;;
26622;SDS011;14254;50.968;5.366;2022-10-19T09:30:59;23.27;;;10.02;;
26622;SDS011;14254;50.968;5.366;2022-10-19T09:33:27;30.23;;;11.95;;
26622;SDS011;14254;50.968;5.366;2022-10-19T09:35:58;24.45;;;10.35;;
26622;SDS011;14254;50.968;5.366;2022-10-19T09:38:26;23.85;;;9.38;;
26622;SDS011;14254;50.968;5.366;2022-10-19T09:40:53;22.48;;;9.98;;
26622;SDS011;14254;50.968;5.366;2022-10-19T09:43:42;19.80;;;9.85;;
26622;SDS011;14254;50.968;5.366;2022-10-19T09:46:24;20.65;;;9.30;;
26622;SDS011;14254;50.968;5.366;2022-10-19T09:48:57;17.52;;;8.30;;
26622;SDS011;14254;50.968;5.366;2022-10-19T09:51:25;26.30;;;10.32;;
26622;SDS011;14254;50.968;5.366;2022-10-19T09:54:02;26.45;;;8.25;;
26622;SDS011;14254;50.968;5.366;2022-10-19T09:56:28;27.20;;;10.55;;
26622;SDS011;14254;50.968;5.366;2022-10-19T09:58:57;21.38;;;9.60;;
26622;SDS011;14254;50.968;5.366;2022-10-19T10:01:36;17.23;;;9.60;;
26622;SDS011;14254;50.968;5.366;2022-10-19T10:04:04;19.77;;;9.98;;
26622;SDS011;14254;50.968;5.366;2022-10-19T10:06:35;26.83;;;11.23;;
26622;SDS011;14254;50.968;5.366;2022-10-19T10:09:02;28.67;;;10.45;;
26622;SDS011;14254;50.968;5.366;2022-10-19T10:17:02;21.17;;;10.95;;
26622;SDS011;14254;50.968;5.366;2022-10-19T10:19:30;28.67;;;12.20;;
26622;SDS011;14254;50.968;5.366;2022-10-19T10:21:58;23.13;;;11.75;;
26622;SDS011;14254;50.968;5.366;2022-10-19T10:24:28;23.38;;;10.70;;
26622;SDS011;14254;50.968;5.366;2022-10-19T10:26:56;21.73;;;9.85;;
26622;SDS011;14254;50.968;5.366;2022-10-19T10:29:27;25.38;;;10.35;;
26622;SDS011;14254;50.968;5.366;2022-10-19T10:35:00;29.23;;;10.52;;
26622;SDS011;14254;50.968;5.366;2022-10-19T10:40:03;18.88;;;8.65;;
26622;SDS011;14254;50.968;5.366;2022-10-19T10:42:35;20.50;;;9.02;;
26622;SDS011;14254;50.968;5.366;2022-10-19T10:45:16;22.20;;;10.07;;
26622;SDS011;14254;50.968;5.366;2022-10-19T10:47:54;21.30;;;10.23;;
26622;SDS011;14254;50.968;5.366;2022-10-19T10:50:22;20.92;;;9.40;;
26622;SDS011;14254;50.968;5.366;2022-10-19T10:53:00;20.70;;;8.98;;
26622;SDS011;14254;50.968;5.366;2022-10-19T10:55:27;21.30;;;10.07;;
26622;SDS011;14254;50.968;5.366;2022-10-19T10:58:01;28.92;;;10.32;;
26622;SDS011;14254;50.968;5.366;2022-10-19T11:01:12;12.50;;;7.28;;
26622;SDS011;14254;50.968;5.366;2022-10-19T11:03:46;17.05;;;8.32;;
26622;SDS011;14254;50.968;5.366;2022-10-19T11:06:21;22.83;;;9.27;;
26622;SDS011;14254;50.968;5.366;2022-10-19T11:08:51;19.73;;;8.15;;
26622;SDS011;14254;50.968;5.366;2022-10-19T11:11:33;16.23;;;7.70;;
26622;SDS011;14254;50.968;5.366;2022-10-19T11:14:18;20.25;;;8.55;;
26622;SDS011;14254;50.968;5.366;2022-10-19T11:16:46;15.23;;;7.40;;
26622;SDS011;14254;50.968;5.366;2022-10-19T11:19:26;15.13;;;7.78;;
26622;SDS011;14254;50.968;5.366;2022-10-19T11:35:30;21.02;;;8.23;;
26622;SDS011;14254;50.968;5.366;2022-10-19T11:41:01;19.67;;;9.07;;
26622;SDS011;14254;50.968;5.366;2022-10-19T11:43:33;19.50;;;8.77;;
26622;SDS011;14254;50.968;5.366;2022-10-19T11:49:14;18.05;;;9.82;;
26622;SDS011;14254;50.968;5.366;2022-10-19T11:57:15;22.20;;;11.07;;
26622;SDS011;14254;50.968;5.366;2022-10-19T12:05:18;17.85;;;11.02;;
26622;SDS011;14254;50.968;5.366;2022-10-19T12:07:59;21.88;;;12.18;;
26622;SDS011;14254;50.968;5.366;2022-10-19T12:10:55;21.77;;;11.75;;
26622;SDS011;14254;50.968;5.366;2022-10-19T12:13:27;21.40;;;11.95;;
26622;SDS011;14254;50.968;5.366;2022-10-19T12:16:03;19.38;;;13.57;;
26622;SDS011;14254;50.968;5.366;2022-10-19T12:18:33;26.75;;;15.70;;
26622;SDS011;14254;50.968;5.366;2022-10-19T12:23:55;19.02;;;14.10;;
26622;SDS011;14254;50.968;5.366;2022-10-19T12:26:23;24.42;;;14.65;;
26622;SDS011;14254;50.968;5.366;2022-10-19T12:28:52;26.77;;;16.55;;
26622;SDS011;14254;50.968;5.366;2022-10-19T12:31:23;25.48;;;13.10;;
26622;SDS011;14254;50.968;5.366;2022-10-19T12:39:39;22.27;;;14.10;;
26622;SDS011;14254;50.968;5.366;2022-10-19T12:42:35;19.75;;;13.20;;
26622;SDS011;14254;50.968;5.366;2022-10-19T12:48:17;29.63;;;15.32;;
26622;SDS011;14254;50.968;5.366;2022-10-19T12:54:14;29.00;;;16.25;;
26622;SDS011;14254;50.968;5.366;2022-10-19T12:56:16;25.75;;;14.70;;
26622;SDS011;14254;50.968;5.366;2022-10-19T12:58:49;28.38;;;17.42;;
26622;SDS011;14254;50.968;5.366;2022-10-19T13:01:21;26.60;;;16.55;;
26622;SDS011;14254;50.968;5.366;2022-10-19T13:03:52;21.20;;;14.18;;
26622;SDS011;14254;50.968;5.366;2022-10-19T13:09:35;28.73;;;16.92;;
26622;SDS011;14254;50.968;5.366;2022-10-19T13:14:56;22.77;;;15.57;;
26622;SDS011;14254;50.968;5.366;2022-10-19T13:20:59;29.77;;;17.73;;
26622;SDS011;14254;50.968;5.366;2022-10-19T13:25:34;30.02;;;17.52;;
26622;SDS011;14254;50.968;5.366;2022-10-19T13:38:36;29.88;;;18.25;;
26622;SDS011;14254;50.968;5.366;2022-10-19T13:46:20;29.23;;;18.67;;
26622;SDS011;14254;50.968;5.366;2022-10-19T14:00:23;31.75;;;16.70;;
26622;SDS011;14254;50.968;5.366;2022-10-19T14:05:25;30.25;;;18.77;;
26622;SDS011;14254;50.968;5.366;2022-10-19T14:11:02;37.83;;;22.17;;
26622;SDS011;14254;50.968;5.366;2022-10-19T14:13:30;40.70;;;21.13;;
26622;SDS011;14254;50.968;5.366;2022-10-19T14:15:57;36.30;;;21.30;;
26622;SDS011;14254;50.968;5.366;2022-10-19T14:18:29;31.98;;;18.73;;
26622;SDS011;14254;50.968;5.366;2022-10-19T14:23:27;34.22;;;21.27;;
26622;SDS011;14254;50.968;5.366;2022-10-19T14:25:59;36.38;;;22.20;;
26622;SDS011;14254;50.968;5.366;2022-10-19T14:28:28;34.10;;;22.20;;
26622;SDS011;14254;50.968;5.366;2022-10-19T14:31:00;32.85;;;21.10;;
26622;SDS011;14254;50.968;5.366;2022-10-19T14:33:28;38.03;;;21.83;;
26622;SDS011;14254;50.968;5.366;2022-10-19T14:35:58;28.02;;;19.13;;
26622;SDS011;14254;50.968;5.366;2022-10-19T14:40:57;28.95;;;20.15;;
26622;SDS011;14254;50.968;5.366;2022-10-19T14:43:24;38.25;;;20.35;;
26622;SDS011;14254;50.968;5.366;2022-10-19T14:48:44;30.85;;;20.15;;
26622;SDS011;14254;50.968;5.366;2022-10-19T14:53:47;30.25;;;18.48;;
26622;SDS011;14254;50.968;5.366;2022-10-19T14:56:22;26.67;;;18.15;;
26622;SDS011;14254;50.968;5.366;2022-10-19T14:58:55;28.30;;;18.92;;
26622;SDS011;14254;50.968;5.366;2022-10-19T15:01:24;24.95;;;17.65;;
26622;SDS011;14254;50.968;5.366;2022-10-19T15:03:50;27.88;;;16.38;;
26622;SDS011;14254;50.968;5.366;2022-10-19T15:08:48;27.05;;;17.02;;
26622;SDS011;14254;50.968;5.366;2022-10-19T15:11:35;24.13;;;16.25;;
26622;SDS011;14254;50.968;5.366;2022-10-19T15:14:14;25.08;;;16.50;;
26622;SDS011;14254;50.968;5.366;2022-10-19T15:16:56;29.15;;;16.67;;
26622;SDS011;14254;50.968;5.366;2022-10-19T15:19:38;30.17;;;16.40;;
26622;SDS011;14254;50.968;5.366;2022-10-19T15:25:02;25.40;;;16.65;;
26622;SDS011;14254;50.968;5.366;2022-10-19T15:27:32;27.48;;;16.00;;
26622;SDS011;14254;50.968;5.366;2022-10-19T15:32:53;30.10;;;15.75;;
26622;SDS011;14254;50.968;5.366;2022-10-19T15:35:24;26.50;;;14.43;;
26622;SDS011;14254;50.968;5.366;2022-10-19T15:40:33;28.13;;;15.75;;
26622;SDS011;14254;50.968;5.366;2022-10-19T15:45:59;26.52;;;16.52;;
26622;SDS011;14254;50.968;5.366;2022-10-19T15:48:42;30.45;;;16.40;;
26622;SDS011;14254;50.968;5.366;2022-10-19T15:53:49;31.98;;;15.52;;
26622;SDS011;14254;50.968;5.366;2022-10-19T15:56:15;34.80;;;18.58;;
26622;SDS011;14254;50.968;5.366;2022-10-19T15:58:41;27.42;;;16.80;;
26622;SDS011;14254;50.968;5.366;2022-10-19T16:01:12;28.17;;;17.48;;
26622;SDS011;14254;50.968;5.366;2022-10-19T16:03:41;24.70;;;15.50;;
26622;SDS011;14254;50.968;5.366;2022-10-19T16:06:07;34.78;;;16.63;;
26622;SDS011;14254;50.968;5.366;2022-10-19T16:08:33;29.95;;;14.27;;
26622;SDS011;14254;50.968;5.366;2022-10-19T16:10:59;26.73;;;15.00;;
26622;SDS011;14254;50.968;5.366;2022-10-19T16:13:24;30.63;;;15.63;;
26622;SDS011;14254;50.968;5.366;2022-10-19T16:15:51;28.25;;;15.68;;
26622;SDS011;14254;50.968;5.366;2022-10-19T16:18:27;23.25;;;13.68;;
26622;SDS011;14254;50.968;5.366;2022-10-19T16:20:53;25.88;;;12.75;;
26622;SDS011;14254;50.968;5.366;2022-10-19T16:23:19;29.35;;;14.07;;
26622;SDS011;14254;50.968;5.366;2022-10-19T16:25:44;28.35;;;14.15;;
26622;SDS011;14254;50.968;5.366;2022-10-19T16:28:10;24.42;;;13.50;;
26622;SDS011;14254;50.968;5.366;2022-10-19T16:30:36;21.58;;;12.57;;
26622;SDS011;14254;50.968;5.366;2022-10-19T16:33:02;25.20;;;13.30;;
26622;SDS011;14254;50.968;5.366;2022-10-19T16:35:27;20.05;;;13.00;;
26622;SDS011;14254;50.968;5.366;2022-10-19T16:37:53;25.73;;;13.57;;
26622;SDS011;14254;50.968;5.366;2022-10-19T16:40:18;28.48;;;14.35;;
26622;SDS011;14254;50.968;5.366;2022-10-19T16:42:44;31.65;;;13.32;;
26622;SDS011;14254;50.968;5.366;2022-10-19T16:45:10;27.40;;;15.35;;
26622;SDS011;14254;50.968;5.366;2022-10-19T16:47:35;24.58;;;14.38;;
26622;SDS011;14254;50.968;5.366;2022-10-19T16:50:02;22.63;;;14.80;;
26622;SDS011;14254;50.968;5.366;2022-10-19T16:52:29;28.00;;;14.77;;
26622;SDS011;14254;50.968;5.366;2022-10-19T16:54:58;23.05;;;12.98;;
26622;SDS011;14254;50.968;5.366;2022-10-19T16:57:24;25.95;;;13.93;;
26622;SDS011;14254;50.968;5.366;2022-10-19T16:59:50;26.63;;;12.70;;
26622;SDS011;14254;50.968;5.366;2022-10-19T17:02:17;25.17;;;13.10;;
26622;SDS011;14254;50.968;5.366;2022-10-19T17:04:43;26.30;;;13.65;;
26622;SDS011;14254;50.968;5.366;2022-10-19T17:07:09;29.67;;;12.85;;
26622;SDS011;14254;50.968;5.366;2022-10-19T17:09:36;23.15;;;13.65;;
26622;SDS011;14254;50.968;5.366;2022-10-19T17:12:03;23.20;;;12.23;;
26622;SDS011;14254;50.968;5.366;2022-10-19T17:14:28;26.35;;;12.88;;
26622;SDS011;14254;50.968;5.366;2022-10-19T17:16:54;26.85;;;14.07;;